sensor_id;sensor_type;location;lat;lon;timestamp;temperature;humidity
42227;DHT22;27892;52.378;13.122;2022-10-22T00:01:47;18.00;83.90
42227;DHT22;27892;52.378;13.122;2022-10-22T00:04:13;18.00;83.70
42227;DHT22;27892;52.378;13.122;2022-10-22T00:06:39;17.90;83.50
42227;DHT22;27892;52.378;13.122;2022-10-22T00:09:05;18.00;84.00
42227;DHT22;27892;52.378;13.122;2022-10-22T00:11:31;17.90;83.70
42227;DHT22;27892;52.378;13.122;2022-10-22T00:13:59;18.00;84.20
42227;DHT22;27892;52.378;13.122;2022-10-22T00:16:25;18.00;83.80
42227;DHT22;27892;52.378;13.122;2022-10-22T00:18:50;18.00;83.70
42227;DHT22;27892;52.378;13.122;2022-10-22T00:21:16;17.90;83.20
42227;DHT22;27892;52.378;13.122;2022-10-22T00:23:42;17.90;83.40
42227;DHT22;27892;52.378;13.122;2022-10-22T00:26:11;17.80;83.00
42227;DHT22;27892;52.378;13.122;2022-10-22T00:28:37;17.70;83.50
42227;DHT22;27892;52.378;13.122;2022-10-22T00:31:04;17.70;84.10
42227;DHT22;27892;52.378;13.122;2022-10-22T00:33:30;17.60;84.30
42227;DHT22;27892;52.378;13.122;2022-10-22T00:35:56;17.60;84.30
42227;DHT22;27892;52.378;13.122;2022-10-22T00:38:22;17.60;85.30
42227;DHT22;27892;52.378;13.122;2022-10-22T00:40:48;17.60;85.30
42227;DHT22;27892;52.378;13.122;2022-10-22T00:43:18;17.70;84.90
42227;DHT22;27892;52.378;13.122;2022-10-22T00:45:45;17.80;84.90
42227;DHT22;27892;52.378;13.122;2022-10-22T00:48:15;17.70;84.30
42227;DHT22;27892;52.378;13.122;2022-10-22T00:51:02;17.70;84.10
42227;DHT22;27892;52.378;13.122;2022-10-22T00:53:35;17.70;84.30
42227;DHT22;27892;52.378;13.122;2022-10-22T00:56:02;17.60;84.50
42227;DHT22;27892;52.378;13.122;2022-10-22T00:58:31;17.60;84.70
42227;DHT22;27892;52.378;13.122;2022-10-22T01:00:59;17.50;85.10
42227;DHT22;27892;52.378;13.122;2022-10-22T01:03:25;17.60;85.40
42227;DHT22;27892;52.378;13.122;2022-10-22T01:05:59;17.60;85.20
42227;DHT22;27892;52.378;13.122;2022-10-22T01:08:49;17.50;85.50
42227;DHT22;27892;52.378;13.122;2022-10-22T01:14:17;17.60;86.30
42227;DHT22;27892;52.378;13.122;2022-10-22T01:17:04;17.60;86.10
42227;DHT22;27892;52.378;13.122;2022-10-22T01:22:43;17.60;86.90
42227;DHT22;27892;52.378;13.122;2022-10-22T01:28:04;17.60;85.80
42227;DHT22;27892;52.378;13.122;2022-10-22T01:30:33;17.60;85.40
42227;DHT22;27892;52.378;13.122;2022-10-22T01:33:04;17.60;85.50
42227;DHT22;27892;52.378;13.122;2022-10-22T01:35:34;17.60;84.70
42227;DHT22;27892;52.378;13.122;2022-10-22T01:38:04;17.50;84.40
42227;DHT22;27892;52.378;13.122;2022-10-22T01:40:31;17.50;84.40
42227;DHT22;27892;52.378;13.122;2022-10-22T01:42:57;17.50;84.40
42227;DHT22;27892;52.378;13.122;2022-10-22T01:45:25;17.50;84.20
42227;DHT22;27892;52.378;13.122;2022-10-22T01:48:13;17.50;84.00
42227;DHT22;27892;52.378;13.122;2022-10-22T01:53:47;17.40;84.00
42227;DHT22;27892;52.378;13.122;2022-10-22T02:07:36;17.30;84.40
42227;DHT22;27892;52.378;13.122;2022-10-22T02:10:04;17.30;84.10
42227;DHT22;27892;52.378;13.122;2022-10-22T02:12:33;17.20;83.80
42227;DHT22;27892;52.378;13.122;2022-10-22T02:15:00;17.20;84.10
42227;DHT22;27892;52.378;13.122;2022-10-22T02:17:28;17.20;84.40
42227;DHT22;27892;52.378;13.122;2022-10-22T02:19:57;17.20;84.00
42227;DHT22;27892;52.378;13.122;2022-10-22T02:22:25;17.20;83.90
42227;DHT22;27892;52.378;13.122;2022-10-22T02:24:52;17.20;84.00
42227;DHT22;27892;52.378;13.122;2022-10-22T02:27:57;17.10;84.20
42227;DHT22;27892;52.378;13.122;2022-10-22T02:30:20;17.10;84.40
42227;DHT22;27892;52.378;13.122;2022-10-22T02:33:27;17.10;84.10
42227;DHT22;27892;52.378;13.122;2022-10-22T02:36:14;17.10;84.20
42227;DHT22;27892;52.378;13.122;2022-10-22T02:39:00;17.00;83.70
42227;DHT22;27892;52.378;13.122;2022-10-22T02:41:44;17.00;83.60
42227;DHT22;27892;52.378;13.122;2022-10-22T02:44:29;17.00;83.60
42227;DHT22;27892;52.378;13.122;2022-10-22T02:47:13;17.00;83.50
42227;DHT22;27892;52.378;13.122;2022-10-22T02:49:39;17.00;83.50
42227;DHT22;27892;52.378;13.122;2022-10-22T02:52:04;17.10;83.60
42227;DHT22;27892;52.378;13.122;2022-10-22T02:54:30;17.10;83.30
42227;DHT22;27892;52.378;13.122;2022-10-22T02:56:55;17.10;83.20
42227;DHT22;27892;52.378;13.122;2022-10-22T02:59:21;17.00;83.10
42227;DHT22;27892;52.378;13.122;2022-10-22T03:01:47;17.00;83.30
42227;DHT22;27892;52.378;13.122;2022-10-22T03:04:12;17.00;83.50
42227;DHT22;27892;52.378;13.122;2022-10-22T03:06:38;17.00;84.10
42227;DHT22;27892;52.378;13.122;2022-10-22T03:09:03;17.00;84.50
42227;DHT22;27892;52.378;13.122;2022-10-22T03:11:29;17.00;84.70
42227;DHT22;27892;52.378;13.122;2022-10-22T03:13:54;17.00;84.70
42227;DHT22;27892;52.378;13.122;2022-10-22T03:16:20;17.00;84.50
42227;DHT22;27892;52.378;13.122;2022-10-22T03:18:46;16.90;84.20
42227;DHT22;27892;52.378;13.122;2022-10-22T03:21:32;16.90;84.00
42227;DHT22;27892;52.378;13.122;2022-10-22T03:24:02;17.00;84.40
42227;DHT22;27892;52.378;13.122;2022-10-22T03:26:30;17.00;83.80
42227;DHT22;27892;52.378;13.122;2022-10-22T03:28:57;17.00;83.50
42227;DHT22;27892;52.378;13.122;2022-10-22T03:31:22;17.00;83.30
42227;DHT22;27892;52.378;13.122;2022-10-22T03:33:48;16.90;82.90
42227;DHT22;27892;52.378;13.122;2022-10-22T03:36:13;16.90;83.10
42227;DHT22;27892;52.378;13.122;2022-10-22T03:38:39;16.90;83.10
42227;DHT22;27892;52.378;13.122;2022-10-22T03:41:05;16.80;83.00
42227;DHT22;27892;52.378;13.122;2022-10-22T03:43:33;16.80;83.40
42227;DHT22;27892;52.378;13.122;2022-10-22T03:45:59;16.90;83.40
42227;DHT22;27892;52.378;13.122;2022-10-22T03:48:25;16.90;83.10
42227;DHT22;27892;52.378;13.122;2022-10-22T03:50:51;16.90;83.20
42227;DHT22;27892;52.378;13.122;2022-10-22T03:53:16;17.00;83.10
42227;DHT22;27892;52.378;13.122;2022-10-22T03:55:42;16.90;82.90
42227;DHT22;27892;52.378;13.122;2022-10-22T03:58:08;17.00;82.90
42227;DHT22;27892;52.378;13.122;2022-10-22T04:00:34;17.00;83.20
42227;DHT22;27892;52.378;13.122;2022-10-22T04:03:00;17.00;83.00
42227;DHT22;27892;52.378;13.122;2022-10-22T04:05:25;16.90;82.70
42227;DHT22;27892;52.378;13.122;2022-10-22T04:07:51;16.90;83.60
42227;DHT22;27892;52.378;13.122;2022-10-22T04:10:17;16.90;84.00
42227;DHT22;27892;52.378;13.122;2022-10-22T04:12:46;17.00;84.10
42227;DHT22;27892;52.378;13.122;2022-10-22T04:15:12;17.10;84.20
42227;DHT22;27892;52.378;13.122;2022-10-22T04:17:38;17.10;84.00
42227;DHT22;27892;52.378;13.122;2022-10-22T04:20:04;17.10;83.90
42227;DHT22;27892;52.378;13.122;2022-10-22T04:22:33;17.10;83.90
42227;DHT22;27892;52.378;13.122;2022-10-22T04:24:59;17.10;83.80
42227;DHT22;27892;52.378;13.122;2022-10-22T04:27:24;17.10;83.70
42227;DHT22;27892;52.378;13.122;2022-10-22T04:29:50;17.10;84.20
42227;DHT22;27892;52.378;13.122;2022-10-22T04:32:16;17.10;84.20
42227;DHT22;27892;52.378;13.122;2022-10-22T04:34:42;17.10;84.20
42227;DHT22;27892;52.378;13.122;2022-10-22T04:37:07;17.20;84.10
42227;DHT22;27892;52.378;13.122;2022-10-22T04:39:33;17.10;84.20
42227;DHT22;27892;52.378;13.122;2022-10-22T04:41:58;17.10;83.80
42227;DHT22;27892;52.378;13.122;2022-10-22T04:44:24;17.10;83.90
42227;DHT22;27892;52.378;13.122;2022-10-22T04:46:50;17.10;83.60
42227;DHT22;27892;52.378;13.122;2022-10-22T04:49:15;17.10;83.50
42227;DHT22;27892;52.378;13.122;2022-10-22T04:51:41;17.10;83.50
42227;DHT22;27892;52.378;13.122;2022-10-22T04:54:07;17.10;83.10
42227;DHT22;27892;52.378;13.122;2022-10-22T04:56:32;17.10;83.00
42227;DHT22;27892;52.378;13.122;2022-10-22T04:59:00;17.00;82.60
42227;DHT22;27892;52.378;13.122;2022-10-22T05:01:34;17.00;82.60
42227;DHT22;27892;52.378;13.122;2022-10-22T05:04:02;16.90;83.00
42227;DHT22;27892;52.378;13.122;2022-10-22T05:06:29;16.80;83.40
42227;DHT22;27892;52.378;13.122;2022-10-22T05:08:58;16.70;83.60
42227;DHT22;27892;52.378;13.122;2022-10-22T05:11:36;16.80;83.40
42227;DHT22;27892;52.378;13.122;2022-10-22T05:14:04;16.80;83.50
42227;DHT22;27892;52.378;13.122;2022-10-22T05:16:30;16.80;83.40
42227;DHT22;27892;52.378;13.122;2022-10-22T05:18:57;16.80;83.10
42227;DHT22;27892;52.378;13.122;2022-10-22T05:21:24;16.70;82.80
42227;DHT22;27892;52.378;13.122;2022-10-22T05:23:49;16.70;82.90
42227;DHT22;27892;52.378;13.122;2022-10-22T05:26:18;16.70;82.70
42227;DHT22;27892;52.378;13.122;2022-10-22T05:28:44;16.60;82.60
42227;DHT22;27892;52.378;13.122;2022-10-22T05:31:11;16.60;82.70
42227;DHT22;27892;52.378;13.122;2022-10-22T05:33:37;16.60;82.70
42227;DHT22;27892;52.378;13.122;2022-10-22T05:36:05;16.60;82.70
42227;DHT22;27892;52.378;13.122;2022-10-22T05:38:31;16.60;82.70
42227;DHT22;27892;52.378;13.122;2022-10-22T05:41:08;16.50;82.70
42227;DHT22;27892;52.378;13.122;2022-10-22T05:43:35;16.60;82.80
42227;DHT22;27892;52.378;13.122;2022-10-22T05:46:10;16.60;82.80
42227;DHT22;27892;52.378;13.122;2022-10-22T05:48:36;16.60;82.70
42227;DHT22;27892;52.378;13.122;2022-10-22T05:51:08;16.50;82.30
42227;DHT22;27892;52.378;13.122;2022-10-22T05:53:36;16.60;82.60
42227;DHT22;27892;52.378;13.122;2022-10-22T05:56:06;16.50;82.00
42227;DHT22;27892;52.378;13.122;2022-10-22T05:58:33;16.50;81.80
42227;DHT22;27892;52.378;13.122;2022-10-22T06:01:08;16.40;82.30
42227;DHT22;27892;52.378;13.122;2022-10-22T06:03:35;16.40;83.10
42227;DHT22;27892;52.378;13.122;2022-10-22T06:06:05;16.40;83.70
42227;DHT22;27892;52.378;13.122;2022-10-22T06:08:32;16.40;84.20
42227;DHT22;27892;52.378;13.122;2022-10-22T06:10:58;16.40;83.90
42227;DHT22;27892;52.378;13.122;2022-10-22T06:13:24;16.50;84.10
42227;DHT22;27892;52.378;13.122;2022-10-22T06:15:50;16.50;83.70
42227;DHT22;27892;52.378;13.122;2022-10-22T06:18:18;16.60;83.30
42227;DHT22;27892;52.378;13.122;2022-10-22T06:20:43;16.50;82.90
42227;DHT22;27892;52.378;13.122;2022-10-22T06:23:09;16.50;83.00
42227;DHT22;27892;52.378;13.122;2022-10-22T06:25:35;16.50;82.80
42227;DHT22;27892;52.378;13.122;2022-10-22T06:28:01;16.50;82.60
42227;DHT22;27892;52.378;13.122;2022-10-22T06:30:27;16.50;82.60
42227;DHT22;27892;52.378;13.122;2022-10-22T06:32:53;16.50;82.80
42227;DHT22;27892;52.378;13.122;2022-10-22T06:35:18;16.50;82.60
42227;DHT22;27892;52.378;13.122;2022-10-22T06:37:44;16.50;83.20
42227;DHT22;27892;52.378;13.122;2022-10-22T06:40:11;16.50;83.70
42227;DHT22;27892;52.378;13.122;2022-10-22T06:42:37;16.60;83.60
42227;DHT22;27892;52.378;13.122;2022-10-22T06:45:03;16.60;83.90
42227;DHT22;27892;52.378;13.122;2022-10-22T06:47:29;16.60;84.10
42227;DHT22;27892;52.378;13.122;2022-10-22T06:49:57;16.60;84.40
42227;DHT22;27892;52.378;13.122;2022-10-22T06:52:23;16.70;84.70
42227;DHT22;27892;52.378;13.122;2022-10-22T06:54:49;16.80;84.80
42227;DHT22;27892;52.378;13.122;2022-10-22T06:57:14;16.80;85.00
42227;DHT22;27892;52.378;13.122;2022-10-22T06:59:40;16.90;85.10
42227;DHT22;27892;52.378;13.122;2022-10-22T07:02:07;16.90;85.10
42227;DHT22;27892;52.378;13.122;2022-10-22T07:04:32;17.00;85.30
42227;DHT22;27892;52.378;13.122;2022-10-22T07:06:58;17.00;85.00
42227;DHT22;27892;52.378;13.122;2022-10-22T07:09:24;17.00;85.40
42227;DHT22;27892;52.378;13.122;2022-10-22T07:11:49;17.10;85.60
42227;DHT22;27892;52.378;13.122;2022-10-22T07:14:15;17.10;85.60
42227;DHT22;27892;52.378;13.122;2022-10-22T07:16:40;17.30;85.80
42227;DHT22;27892;52.378;13.122;2022-10-22T07:19:12;17.40;85.30
42227;DHT22;27892;52.378;13.122;2022-10-22T07:21:38;17.60;85.00
42227;DHT22;27892;52.378;13.122;2022-10-22T07:24:04;17.60;84.80
42227;DHT22;27892;52.378;13.122;2022-10-22T07:26:30;17.70;84.40
42227;DHT22;27892;52.378;13.122;2022-10-22T07:29:00;17.80;84.60
42227;DHT22;27892;52.378;13.122;2022-10-22T07:31:26;17.90;84.60
42227;DHT22;27892;52.378;13.122;2022-10-22T07:33:51;18.00;83.50
42227;DHT22;27892;52.378;13.122;2022-10-22T07:36:17;18.00;83.50
42227;DHT22;27892;52.378;13.122;2022-10-22T07:38:44;18.00;83.00
42227;DHT22;27892;52.378;13.122;2022-10-22T07:41:10;17.90;83.20
42227;DHT22;27892;52.378;13.122;2022-10-22T07:43:36;17.90;83.40
42227;DHT22;27892;52.378;13.122;2022-10-22T07:46:02;17.90;83.60
42227;DHT22;27892;52.378;13.122;2022-10-22T07:48:28;17.90;83.80
42227;DHT22;27892;52.378;13.122;2022-10-22T07:50:54;18.00;83.90
42227;DHT22;27892;52.378;13.122;2022-10-22T07:53:19;18.00;83.50
42227;DHT22;27892;52.378;13.122;2022-10-22T07:55:49;18.00;84.00
42227;DHT22;27892;52.378;13.122;2022-10-22T07:58:16;18.00;84.00
42227;DHT22;27892;52.378;13.122;2022-10-22T08:00:42;18.10;83.40
42227;DHT22;27892;52.378;13.122;2022-10-22T08:03:10;18.00;83.70
42227;DHT22;27892;52.378;13.122;2022-10-22T08:05:36;18.10;83.80
42227;DHT22;27892;52.378;13.122;2022-10-22T08:08:04;18.10;83.70
42227;DHT22;27892;52.378;13.122;2022-10-22T08:10:30;18.10;83.60
42227;DHT22;27892;52.378;13.122;2022-10-22T08:12:56;18.20;83.40
42227;DHT22;27892;52.378;13.122;2022-10-22T08:15:22;18.20;83.70
42227;DHT22;27892;52.378;13.122;2022-10-22T08:17:50;18.30;83.80
42227;DHT22;27892;52.378;13.122;2022-10-22T08:20:16;18.30;83.30
42227;DHT22;27892;52.378;13.122;2022-10-22T08:22:42;18.40;83.30
42227;DHT22;27892;52.378;13.122;2022-10-22T08:25:07;18.50;83.20
42227;DHT22;27892;52.378;13.122;2022-10-22T08:27:33;18.60;83.20
42227;DHT22;27892;52.378;13.122;2022-10-22T08:29:59;18.60;82.90
42227;DHT22;27892;52.378;13.122;2022-10-22T08:32:24;18.60;83.00
42227;DHT22;27892;52.378;13.122;2022-10-22T08:34:50;18.60;82.90
42227;DHT22;27892;52.378;13.122;2022-10-22T08:37:16;18.70;83.10
42227;DHT22;27892;52.378;13.122;2022-10-22T08:39:43;18.70;83.00
42227;DHT22;27892;52.378;13.122;2022-10-22T08:44:55;19.00;83.30
42227;DHT22;27892;52.378;13.122;2022-10-22T08:50:35;19.20;82.60
42227;DHT22;27892;52.378;13.122;2022-10-22T08:53:10;19.20;82.60
42227;DHT22;27892;52.378;13.122;2022-10-22T08:55:37;19.30;82.70
42227;DHT22;27892;52.378;13.122;2022-10-22T09:01:13;19.50;82.60
42227;DHT22;27892;52.378;13.122;2022-10-22T09:04:12;19.60;82.70
42227;DHT22;27892;52.378;13.122;2022-10-22T09:06:41;19.70;82.20
42227;DHT22;27892;52.378;13.122;2022-10-22T09:09:14;19.70;81.70
42227;DHT22;27892;52.378;13.122;2022-10-22T09:11:48;19.80;81.60
42227;DHT22;27892;52.378;13.122;2022-10-22T09:14:22;19.90;81.50
42227;DHT22;27892;52.378;13.122;2022-10-22T09:19:46;19.90;80.00
42227;DHT22;27892;52.378;13.122;2022-10-22T09:25:30;19.90;81.30
42227;DHT22;27892;52.378;13.122;2022-10-22T09:27:55;20.00;80.90
42227;DHT22;27892;52.378;13.122;2022-10-22T09:30:30;20.00;80.90
42227;DHT22;27892;52.378;13.122;2022-10-22T09:33:17;20.10;81.50
42227;DHT22;27892;52.378;13.122;2022-10-22T09:35:56;20.20;81.40
42227;DHT22;27892;52.378;13.122;2022-10-22T09:38:25;20.40;81.40
42227;DHT22;27892;52.378;13.122;2022-10-22T09:40:53;20.50;80.60
42227;DHT22;27892;52.378;13.122;2022-10-22T09:43:19;20.60;80.20
42227;DHT22;27892;52.378;13.122;2022-10-22T09:45:45;20.70;80.30
42227;DHT22;27892;52.378;13.122;2022-10-22T09:48:20;20.70;80.20
42227;DHT22;27892;52.378;13.122;2022-10-22T09:50:57;20.80;80.50
42227;DHT22;27892;52.378;13.122;2022-10-22T09:53:35;20.70;79.40
42227;DHT22;27892;52.378;13.122;2022-10-22T09:56:07;20.70;80.10
42227;DHT22;27892;52.378;13.122;2022-10-22T09:58:44;20.80;79.90
42227;DHT22;27892;52.378;13.122;2022-10-22T10:01:26;20.90;79.30
42227;DHT22;27892;52.378;13.122;2022-10-22T10:03:52;21.10;80.20
42227;DHT22;27892;52.378;13.122;2022-10-22T10:06:20;21.30;79.70
42227;DHT22;27892;52.378;13.122;2022-10-22T10:08:47;21.30;76.20
42227;DHT22;27892;52.378;13.122;2022-10-22T10:11:26;21.40;77.50
42227;DHT22;27892;52.378;13.122;2022-10-22T10:14:25;21.40;77.20
42227;DHT22;27892;52.378;13.122;2022-10-22T10:16:59;21.30;76.90
42227;DHT22;27892;52.378;13.122;2022-10-22T10:19:45;21.20;76.00
42227;DHT22;27892;52.378;13.122;2022-10-22T10:22:32;21.20;76.30
42227;DHT22;27892;52.378;13.122;2022-10-22T10:27:40;21.10;76.50
42227;DHT22;27892;52.378;13.122;2022-10-22T10:30:16;21.10;76.70
42227;DHT22;27892;52.378;13.122;2022-10-22T10:41:15;21.40;77.40
42227;DHT22;27892;52.378;13.122;2022-10-22T10:43:58;21.80;78.90
42227;DHT22;27892;52.378;13.122;2022-10-22T10:49:24;22.20;73.00
42227;DHT22;27892;52.378;13.122;2022-10-22T10:52:12;22.60;76.30
42227;DHT22;27892;52.378;13.122;2022-10-22T10:57:51;22.90;71.20
42227;DHT22;27892;52.378;13.122;2022-10-22T11:00:20;22.70;71.40
42227;DHT22;27892;52.378;13.122;2022-10-22T11:03:31;23.00;72.50
42227;DHT22;27892;52.378;13.122;2022-10-22T11:06:02;23.80;72.30
42227;DHT22;27892;52.378;13.122;2022-10-22T11:08:34;24.80;70.70
42227;DHT22;27892;52.378;13.122;2022-10-22T11:11:16;25.60;65.70
42227;DHT22;27892;52.378;13.122;2022-10-22T11:13:56;26.20;63.00
42227;DHT22;27892;52.378;13.122;2022-10-22T11:16:43;26.50;60.40
42227;DHT22;27892;52.378;13.122;2022-10-22T11:19:40;26.80;60.30
42227;DHT22;27892;52.378;13.122;2022-10-22T11:22:28;27.30;58.50
42227;DHT22;27892;52.378;13.122;2022-10-22T11:27:56;27.70;56.80
42227;DHT22;27892;52.378;13.122;2022-10-22T11:30:25;28.10;55.60
42227;DHT22;27892;52.378;13.122;2022-10-22T11:32:55;28.60;53.60
42227;DHT22;27892;52.378;13.122;2022-10-22T11:35:27;29.00;51.90
42227;DHT22;27892;52.378;13.122;2022-10-22T11:37:56;29.30;50.40
42227;DHT22;27892;52.378;13.122;2022-10-22T11:42:58;29.40;50.50
42227;DHT22;27892;52.378;13.122;2022-10-22T11:45:38;29.10;50.40
42227;DHT22;27892;52.378;13.122;2022-10-22T11:50:46;28.10;51.60
42227;DHT22;27892;52.378;13.122;2022-10-22T11:55:43;28.30;51.90
42227;DHT22;27892;52.378;13.122;2022-10-22T12:08:30;27.10;53.40
42227;DHT22;27892;52.378;13.122;2022-10-22T12:16:28;26.90;53.10
42227;DHT22;27892;52.378;13.122;2022-10-22T12:19:11;26.70;53.40
42227;DHT22;27892;52.378;13.122;2022-10-22T12:21:40;26.40;53.50
42227;DHT22;27892;52.378;13.122;2022-10-22T12:24:06;26.20;54.70
42227;DHT22;27892;52.378;13.122;2022-10-22T12:26:36;26.00;54.70
42227;DHT22;27892;52.378;13.122;2022-10-22T12:29:08;25.80;54.90
42227;DHT22;27892;52.378;13.122;2022-10-22T12:31:36;25.80;54.60
42227;DHT22;27892;52.378;13.122;2022-10-22T12:34:02;25.60;55.50
42227;DHT22;27892;52.378;13.122;2022-10-22T12:36:29;25.40;55.70
42227;DHT22;27892;52.378;13.122;2022-10-22T12:39:02;25.20;55.80
42227;DHT22;27892;52.378;13.122;2022-10-22T12:41:33;24.90;57.30
42227;DHT22;27892;52.378;13.122;2022-10-22T12:44:00;24.60;57.40
42227;DHT22;27892;52.378;13.122;2022-10-22T12:46:27;24.30;57.80
42227;DHT22;27892;52.378;13.122;2022-10-22T12:48:54;24.20;58.10
42227;DHT22;27892;52.378;13.122;2022-10-22T12:51:23;24.00;58.40
42227;DHT22;27892;52.378;13.122;2022-10-22T12:53:51;23.90;58.70
42227;DHT22;27892;52.378;13.122;2022-10-22T12:56:30;23.80;59.50
42227;DHT22;27892;52.378;13.122;2022-10-22T12:59:00;23.70;59.20
42227;DHT22;27892;52.378;13.122;2022-10-22T13:01:31;23.60;59.80
42227;DHT22;27892;52.378;13.122;2022-10-22T13:04:33;23.50;60.10
42227;DHT22;27892;52.378;13.122;2022-10-22T13:07:13;23.50;60.20
42227;DHT22;27892;52.378;13.122;2022-10-22T13:09:57;23.50;60.60
42227;DHT22;27892;52.378;13.122;2022-10-22T13:12:25;23.50;61.10
42227;DHT22;27892;52.378;13.122;2022-10-22T13:14:51;23.50;62.10
42227;DHT22;27892;52.378;13.122;2022-10-22T13:17:20;23.70;62.50
42227;DHT22;27892;52.378;13.122;2022-10-22T13:20:02;24.00;62.00
42227;DHT22;27892;52.378;13.122;2022-10-22T13:22:38;24.50;62.30
42227;DHT22;27892;52.378;13.122;2022-10-22T13:25:23;24.90;60.70
42227;DHT22;27892;52.378;13.122;2022-10-22T13:27:57;25.30;59.20
42227;DHT22;27892;52.378;13.122;2022-10-22T13:30:31;25.60;58.60
42227;DHT22;27892;52.378;13.122;2022-10-22T13:35:33;26.30;57.20
42227;DHT22;27892;52.378;13.122;2022-10-22T13:37:59;26.50;56.50
42227;DHT22;27892;52.378;13.122;2022-10-22T13:40:25;26.60;55.70
42227;DHT22;27892;52.378;13.122;2022-10-22T13:42:50;26.70;54.60
42227;DHT22;27892;52.378;13.122;2022-10-22T13:45:16;26.80;54.00
42227;DHT22;27892;52.378;13.122;2022-10-22T13:47:52;26.80;54.00
42227;DHT22;27892;52.378;13.122;2022-10-22T13:50:19;26.80;52.60
42227;DHT22;27892;52.378;13.122;2022-10-22T13:52:52;26.90;52.80
42227;DHT22;27892;52.378;13.122;2022-10-22T13:55:20;26.80;51.90
42227;DHT22;27892;52.378;13.122;2022-10-22T13:57:46;26.40;52.10
42227;DHT22;27892;52.378;13.122;2022-10-22T14:00:17;26.00;53.10
42227;DHT22;27892;52.378;13.122;2022-10-22T14:02:46;25.70;53.50
42227;DHT22;27892;52.378;13.122;2022-10-22T14:05:12;25.40;53.70
42227;DHT22;27892;52.378;13.122;2022-10-22T14:07:38;25.10;54.50
42227;DHT22;27892;52.378;13.122;2022-10-22T14:10:17;24.90;55.40
42227;DHT22;27892;52.378;13.122;2022-10-22T14:12:43;24.70;55.40
42227;DHT22;27892;52.378;13.122;2022-10-22T14:15:11;24.40;55.10
42227;DHT22;27892;52.378;13.122;2022-10-22T14:17:38;24.20;55.50
42227;DHT22;27892;52.378;13.122;2022-10-22T14:20:04;24.00;56.50
42227;DHT22;27892;52.378;13.122;2022-10-22T14:22:30;23.80;56.70
42227;DHT22;27892;52.378;13.122;2022-10-22T14:24:56;23.60;57.20
42227;DHT22;27892;52.378;13.122;2022-10-22T14:27:22;23.40;57.40
42227;DHT22;27892;52.378;13.122;2022-10-22T14:29:48;23.30;57.80
42227;DHT22;27892;52.378;13.122;2022-10-22T14:32:15;23.20;58.30
42227;DHT22;27892;52.378;13.122;2022-10-22T14:34:44;23.10;58.90
42227;DHT22;27892;52.378;13.122;2022-10-22T14:37:17;23.00;59.20
42227;DHT22;27892;52.378;13.122;2022-10-22T14:39:46;22.90;59.40
42227;DHT22;27892;52.378;13.122;2022-10-22T14:42:17;22.90;60.00
42227;DHT22;27892;52.378;13.122;2022-10-22T14:44:43;22.70;60.20
42227;DHT22;27892;52.378;13.122;2022-10-22T14:47:14;22.60;60.70
42227;DHT22;27892;52.378;13.122;2022-10-22T14:49:42;22.50;61.30
42227;DHT22;27892;52.378;13.122;2022-10-22T14:52:08;22.40;61.80
42227;DHT22;27892;52.378;13.122;2022-10-22T14:54:34;22.30;62.50
42227;DHT22;27892;52.378;13.122;2022-10-22T14:57:01;22.20;62.80
42227;DHT22;27892;52.378;13.122;2022-10-22T14:59:27;22.20;63.30
42227;DHT22;27892;52.378;13.122;2022-10-22T15:01:52;22.10;63.60
42227;DHT22;27892;52.378;13.122;2022-10-22T15:04:18;21.90;63.90
42227;DHT22;27892;52.378;13.122;2022-10-22T15:06:44;21.90;64.40
42227;DHT22;27892;52.378;13.122;2022-10-22T15:09:09;21.70;64.70
42227;DHT22;27892;52.378;13.122;2022-10-22T15:11:35;21.60;65.10
42227;DHT22;27892;52.378;13.122;2022-10-22T15:14:00;21.50;65.60
42227;DHT22;27892;52.378;13.122;2022-10-22T15:16:26;21.40;65.90
42227;DHT22;27892;52.378;13.122;2022-10-22T15:18:51;21.30;66.30
42227;DHT22;27892;52.378;13.122;2022-10-22T15:21:20;21.20;66.80
42227;DHT22;27892;52.378;13.122;2022-10-22T15:23:46;21.10;67.10
42227;DHT22;27892;52.378;13.122;2022-10-22T15:26:12;21.00;67.40
42227;DHT22;27892;52.378;13.122;2022-10-22T15:28:38;20.90;67.60
42227;DHT22;27892;52.378;13.122;2022-10-22T15:31:05;20.80;68.00
42227;DHT22;27892;52.378;13.122;2022-10-22T15:33:31;20.70;68.30
42227;DHT22;27892;52.378;13.122;2022-10-22T15:35:57;20.60;68.60
42227;DHT22;27892;52.378;13.122;2022-10-22T15:38:27;20.50;69.10
42227;DHT22;27892;52.378;13.122;2022-10-22T15:41:01;20.50;69.30
42227;DHT22;27892;52.378;13.122;2022-10-22T15:43:27;20.40;69.60
42227;DHT22;27892;52.378;13.122;2022-10-22T15:46:11;20.30;69.50
42227;DHT22;27892;52.378;13.122;2022-10-22T15:48:38;20.20;70.00
42227;DHT22;27892;52.378;13.122;2022-10-22T15:51:14;20.00;70.20
42227;DHT22;27892;52.378;13.122;2022-10-22T15:53:40;20.00;70.70
42227;DHT22;27892;52.378;13.122;2022-10-22T15:56:07;19.90;70.50
42227;DHT22;27892;52.378;13.122;2022-10-22T15:58:33;19.80;70.80
42227;DHT22;27892;52.378;13.122;2022-10-22T16:01:10;19.70;71.00
42227;DHT22;27892;52.378;13.122;2022-10-22T16:03:36;19.60;71.50
42227;DHT22;27892;52.378;13.122;2022-10-22T16:06:03;19.60;71.70
42227;DHT22;27892;52.378;13.122;2022-10-22T16:08:28;19.40;71.70
42227;DHT22;27892;52.378;13.122;2022-10-22T16:10:54;19.40;71.70
42227;DHT22;27892;52.378;13.122;2022-10-22T16:13:20;19.30;71.90
42227;DHT22;27892;52.378;13.122;2022-10-22T16:15:48;19.20;72.20
42227;DHT22;27892;52.378;13.122;2022-10-22T16:18:14;19.00;72.50
42227;DHT22;27892;52.378;13.122;2022-10-22T16:20:40;19.00;73.00
42227;DHT22;27892;52.378;13.122;2022-10-22T16:23:06;19.00;73.20
42227;DHT22;27892;52.378;13.122;2022-10-22T16:25:39;18.90;73.20
42227;DHT22;27892;52.378;13.122;2022-10-22T16:28:05;18.80;73.20
42227;DHT22;27892;52.378;13.122;2022-10-22T16:30:32;18.80;73.40
42227;DHT22;27892;52.378;13.122;2022-10-22T16:33:01;18.70;73.40
42227;DHT22;27892;52.378;13.122;2022-10-22T16:35:27;18.70;73.60
42227;DHT22;27892;52.378;13.122;2022-10-22T16:37:53;18.70;73.50
42227;DHT22;27892;52.378;13.122;2022-10-22T16:40:18;18.60;73.50
42227;DHT22;27892;52.378;13.122;2022-10-22T16:42:44;18.50;74.20
42227;DHT22;27892;52.378;13.122;2022-10-22T16:45:10;18.50;74.10
42227;DHT22;27892;52.378;13.122;2022-10-22T16:47:36;18.50;73.90
42227;DHT22;27892;52.378;13.122;2022-10-22T16:50:02;18.40;74.10
42227;DHT22;27892;52.378;13.122;2022-10-22T16:52:27;18.40;74.20
42227;DHT22;27892;52.378;13.122;2022-10-22T16:54:53;18.30;73.90